Time;durP1;ratioP1;P1;durP2;ratioP2;P2;SDS_P1;SDS_P2;PMS_P1;PMS_P2;Temp;Humidity;BMP_temperature;BMP_pressure;BME280_temperature;BME280_humidity;BME280_pressure;Samples;Min_cycle;Max_cycle;Signal;HPM_P1;HPM_P2
2020/02/07 00:02:15;;;;;;;22;13.2;;;;;;;-0.46;84.89063;971.0078;;;;
2020/02/07 00:04:39;;;;;;;18.7;12.4;;;;;;;-0.4;84.79004;971.0609;;;;
2020/02/07 00:07:04;;;;;;;18.8;12.1;;;;;;;-0.49;85.25586;971.0332;;;;
2020/02/07 00:09:29;;;;;;;20;12;;;;;;;-0.48;85.40332;971.0281;;;;
2020/02/07 00:11:55;;;;;;;19;12.4;;;;;;;-0.44;85.65723;970.9595;;;;
2020/02/07 00:14:20;;;;;;;17.5;12.2;;;;;;;-0.5;85.70215;970.8894;;;;
2020/02/07 00:16:45;;;;;;;18.3;12.1;;;;;;;-0.51;85.75488;970.9056;;;;
2020/02/07 00:19:10;;;;;;;16.8;11.5;;;;;;;-0.44;85.37695;970.9467;;;;
2020/02/07 00:21:36;;;;;;;17.3;11.8;;;;;;;-0.53;85.16602;970.9634;;;;
2020/02/07 00:24:00;;;;;;;16.9;11.4;;;;;;;-0.47;84.90039;970.9475;;;;
2020/02/07 00:26:26;;;;;;;16.8;11.3;;;;;;;-0.48;85.54883;970.8719;;;;
2020/02/07 00:28:50;;;;;;;18.2;12.7;;;;;;;-0.43;85.55859;970.901;;;;
2020/02/07 00:31:16;;;;;;;19.6;13.9;;;;;;;-0.38;85.16504;970.8862;;;;
2020/02/07 00:33:41;;;;;;;18.9;14.5;;;;;;;-0.33;85.83594;970.8814;;;;
2020/02/07 00:36:06;;;;;;;23.8;15.3;;;;;;;-0.4;86.2832;970.9092;;;;
2020/02/07 00:38:31;;;;;;;20.3;14.6;;;;;;;-0.28;86.30762;970.8752;;;;
2020/02/07 00:40:56;;;;;;;22;16.2;;;;;;;-0.54;87.58887;970.8939;;;;
2020/02/07 00:43:22;;;;;;;21.9;16;;;;;;;-0.43;87.44238;970.9048;;;;
2020/02/07 00:45:47;;;;;;;20.9;16.2;;;;;;;-0.49;88.11523;970.9227;;;;
2020/02/07 00:48:12;;;;;;;22.6;17;;;;;;;-0.47;88.89355;970.9191;;;;
2020/02/07 00:50:37;;;;;;;22.6;16.5;;;;;;;-0.49;88.39551;970.9525;;;;
2020/02/07 00:53:02;;;;;;;21.7;17.5;;;;;;;-0.46;88.3457;970.9012;;;;
2020/02/07 00:55:27;;;;;;;25.3;17.8;;;;;;;-0.55;89.81836;970.8446;;;;
2020/02/07 00:57:52;;;;;;;23.6;18.2;;;;;;;-0.58;89.82324;970.8582;;;;
2020/02/07 01:00:18;;;;;;;20.5;17;;;;;;;-0.43;89.20313;970.8914;;;;
2020/02/07 01:02:43;;;;;;;22.8;18.1;;;;;;;-0.47;90.28418;970.8867;;;;
2020/02/07 01:05:08;;;;;;;22.8;18.2;;;;;;;-0.53;90.41797;970.8928;;;;
2020/02/07 01:07:33;;;;;;;21.8;17.3;;;;;;;-0.58;90.00293;970.8399;;;;
2020/02/07 01:09:58;;;;;;;27.5;18.7;;;;;;;-0.48;89.47461;970.8697;;;;
2020/02/07 01:12:23;;;;;;;21.2;17.3;;;;;;;-0.41;88.89551;970.8851;;;;
2020/02/07 01:14:49;;;;;;;23.6;18;;;;;;;-0.44;89.1123;970.8657;;;;
2020/02/07 01:17:14;;;;;;;21.8;17.5;;;;;;;-0.48;89.11523;970.9039;;;;
2020/02/07 01:19:39;;;;;;;23.3;17.5;;;;;;;-0.44;88.67676;970.9006;;;;
2020/02/07 01:22:05;;;;;;;21.1;17.3;;;;;;;-0.39;88.31738;970.8775;;;;
2020/02/07 01:24:30;;;;;;;23.7;18;;;;;;;-0.53;88.7002;970.8566;;;;
2020/02/07 01:27:05;;;;;;;23;18.4;;;;;;;-0.65;89.52832;970.827;;;;
2020/02/07 01:31:49;;;;;;;23.6;18.3;;;;;;;-0.61;89.80664;970.9016;;;;
2020/02/07 01:34:10;;;;;;;24.1;18.6;;;;;;;-0.68;90.78711;970.9068;;;;
2020/02/07 01:36:35;;;;;;;24.5;18.4;;;;;;;-0.73;90.48633;970.9174;;;;
2020/02/07 01:39:00;;;;;;;20.7;17.1;;;;;;;-0.58;90.26074;970.8943;;;;
2020/02/07 01:41:25;;;;;;;20.9;17.4;;;;;;;-0.64;90.23633;970.909;;;;
2020/02/07 01:43:51;;;;;;;22.4;17.4;;;;;;;-0.66;91.07129;970.9009;;;;
2020/02/07 01:46:16;;;;;;;20.8;16.6;;;;;;;-0.6;90.1875;970.8481;;;;
2020/02/07 01:51:17;;;;;;;21.6;16.6;;;;;;;-0.61;90.0625;970.7603;;;;
2020/02/07 01:53:50;;;;;;;22.5;17.5;;;;;;;-0.62;90.58789;970.8035;;;;
2020/02/07 01:56:12;;;;;;;21.4;16.8;;;;;;;-0.59;89.79688;970.7781;;;;
2020/02/07 01:58:31;;;;;;;19.2;15.4;;;;;;;-0.64;89.35059;970.7797;;;;
2020/02/07 02:03:36;;;;;;;19.5;15.6;;;;;;;-0.7;91.13086;970.8267;;;;
2020/02/07 02:07:43;;;;;;;19.8;15.7;;;;;;;-0.93;90.0625;970.6961;;;;
2020/02/07 02:10:08;;;;;;;22.5;15.4;;;;;;;-0.83;90.03906;970.7551;;;;
2020/02/07 02:12:33;;;;;;;17.7;14.8;;;;;;;-0.85;90.19043;970.8077;;;;
2020/02/07 02:14:58;;;;;;;18.6;14.9;;;;;;;-0.92;89.84961;970.7819;;;;
2020/02/07 02:17:23;;;;;;;21;16.4;;;;;;;-1.02;91.00684;970.658;;;;
2020/02/07 02:19:52;;;;;;;23.1;16.5;;;;;;;-1.14;91.5625;970.6769;;;;
2020/02/07 02:22:17;;;;;;;21.4;15.7;;;;;;;-1.05;91.13574;970.6088;;;;
2020/02/07 02:24:42;;;;;;;22;16.4;;;;;;;-1.01;91.80176;970.6097;;;;
2020/02/07 02:27:07;;;;;;;19.7;14.6;;;;;;;-0.96;91.41211;970.6041;;;;
2020/02/07 02:29:33;;;;;;;20.4;15.1;;;;;;;-0.97;90.53516;970.6058;;;;
2020/02/07 02:31:58;;;;;;;19.8;16;;;;;;;-1.21;91.36914;970.6188;;;;
2020/02/07 02:34:23;;;;;;;19.1;14.8;;;;;;;-1.13;90.99316;970.6075;;;;
2020/02/07 02:36:48;;;;;;;20.9;15.1;;;;;;;-1.09;91.06934;970.6428;;;;
2020/02/07 02:39:13;;;;;;;18.2;14.3;;;;;;;-1.02;91.11914;970.626;;;;
2020/02/07 02:41:38;;;;;;;18.8;14.8;;;;;;;-1.04;90.68945;970.5504;;;;
2020/02/07 02:44:03;;;;;;;18.6;14.6;;;;;;;-0.98;89.91699;970.5364;;;;
2020/02/07 02:46:28;;;;;;;22;15.1;;;;;;;-1.1;91.26953;970.5364;;;;
2020/02/07 02:48:53;;;;;;;19.1;15.2;;;;;;;-1.05;91.33496;970.5739;;;;
2020/02/07 02:51:18;;;;;;;18.7;14.6;;;;;;;-1.04;91.38184;970.493;;;;
2020/02/07 02:56:09;;;;;;;19.5;15.2;;;;;;;-0.89;90.31738;970.4509;;;;
2020/02/07 02:58:34;;;;;;;19.9;15.8;;;;;;;-0.96;91.17578;970.3417;;;;
2020/02/07 03:00:59;;;;;;;21.3;15.3;;;;;;;-0.95;90.24707;970.2886;;;;
2020/02/07 03:03:24;;;;;;;20.8;15.1;;;;;;;-1.12;91.12012;970.243;;;;
2020/02/07 03:05:49;;;;;;;21;16.2;;;;;;;-1.15;90.68652;970.1916;;;;
2020/02/07 03:08:14;;;;;;;20.1;15.8;;;;;;;-0.98;90.5332;970.218;;;;
2020/02/07 03:10:39;;;;;;;22.3;17;;;;;;;-1.18;90.71289;970.1635;;;;
2020/02/07 03:13:04;;;;;;;23.3;18;;;;;;;-1.16;91.20898;970.1595;;;;
2020/02/07 03:15:29;;;;;;;19.7;17;;;;;;;-0.97;91.42871;970.1922;;;;
2020/02/07 03:17:55;;;;;;;25.5;18.2;;;;;;;-1.16;91.79297;970.1086;;;;
2020/02/07 03:20:20;;;;;;;25.5;18.7;;;;;;;-1.23;91.41895;970.1708;;;;
2020/02/07 03:22:45;;;;;;;23.5;18.3;;;;;;;-1.09;91.27148;970.3356;;;;
2020/02/07 03:25:23;;;;;;;21.9;17.2;;;;;;;-1.18;91.32813;970.4609;;;;
2020/02/07 03:28:02;;;;;;;22.3;17.8;;;;;;;-1.22;91.96973;970.5703;;;;
2020/02/07 03:30:40;;;;;;;21.4;16.9;;;;;;;-1.12;90.92969;970.6483;;;;
2020/02/07 03:33:18;;;;;;;20.4;17;;;;;;;-1.19;91.46094;970.6256;;;;
2020/02/07 03:35:56;;;;;;;20.9;16.4;;;;;;;-1.28;91.31836;970.7112;;;;
2020/02/07 03:38:27;;;;;;;24.5;18.4;;;;;;;-1.26;91.40039;970.7101;;;;
2020/02/07 03:41:04;;;;;;;23.5;17.8;;;;;;;-1.29;91.73047;970.6855;;;;
2020/02/07 03:43:43;;;;;;;22;17.7;;;;;;;-1.22;91.37695;970.6353;;;;
2020/02/07 03:46:08;;;;;;;23.3;18.3;;;;;;;-1.18;91.56348;970.6615;;;;
2020/02/07 03:48:55;;;;;;;22.1;18.7;;;;;;;-1.15;91.42773;970.6669;;;;
2020/02/07 03:51:37;;;;;;;26.1;19.9;;;;;;;-1.21;91.27734;970.6097;;;;
2020/02/07 03:54:16;;;;;;;24.9;19.8;;;;;;;-1.22;91.37891;970.6314;;;;
2020/02/07 03:56:53;;;;;;;24;19.1;;;;;;;-1.28;92.09082;970.5209;;;;
2020/02/07 03:59:18;;;;;;;22.9;19.9;;;;;;;-1.1;91.66113;970.4398;;;;
2020/02/07 04:02:26;;;;;;;24.5;20;;;;;;;-1.11;92.81055;970.4695;;;;
2020/02/07 04:04:51;;;;;;;26.5;21.2;;;;;;;-1.23;92.37109;970.3633;;;;
2020/02/07 04:07:31;;;;;;;25;20.9;;;;;;;-1.28;92.24902;970.3669;;;;
2020/02/07 04:09:47;;;;;;;27;21.9;;;;;;;-1.19;93.22949;970.3345;;;;
2020/02/07 04:12:38;;;;;;;25.4;20.8;;;;;;;-1.2;92.58008;970.2776;;;;
2020/02/07 04:14:32;;;;;;;26.5;22;;;;;;;-1.2;93.30566;970.2455;;;;
2020/02/07 04:17:00;;;;;;;26.9;21.5;;;;;;;-1.21;92.34375;970.2222;;;;
2020/02/07 04:19:25;;;;;;;23.8;20.2;;;;;;;-1.09;92.23438;970.1646;;;;
2020/02/07 04:22:10;;;;;;;25.1;21.5;;;;;;;-1.1;92.25488;970.1664;;;;
2020/02/07 04:24:16;;;;;;;26.7;22.2;;;;;;;-1.18;92.04492;970.1674;;;;
2020/02/07 04:26:41;;;;;;;26.7;22.5;;;;;;;-1.31;92.93555;970.1795;;;;
2020/02/07 04:29:07;;;;;;;28.5;23.8;;;;;;;-1.39;93.64453;970.1411;;;;
2020/02/07 04:31:32;;;;;;;29.5;23.2;;;;;;;-1.22;93.8623;970.1833;;;;
2020/02/07 04:33:57;;;;;;;28.2;22.9;;;;;;;-1.16;92.67578;970.2117;;;;
2020/02/07 04:36:22;;;;;;;27.9;24.1;;;;;;;-1.27;93.11328;970.1955;;;;
2020/02/07 04:38:48;;;;;;;27.4;22.9;;;;;;;-1.23;92.5166;970.2297;;;;
2020/02/07 04:41:19;;;;;;;28.4;23.2;;;;;;;-1.11;93.33691;970.1916;;;;
2020/02/07 04:43:44;;;;;;;26.8;22.9;;;;;;;-1.12;92.68555;970.1819;;;;
2020/02/07 04:46:09;;;;;;;29.2;24;;;;;;;-1.13;92.60547;970.2093;;;;
2020/02/07 04:48:34;;;;;;;26.2;23.1;;;;;;;-1.12;92.97656;970.2017;;;;
2020/02/07 04:50:59;;;;;;;25.8;22.9;;;;;;;-1.02;92.11426;970.2209;;;;
2020/02/07 04:53:24;;;;;;;29.2;23.8;;;;;;;-1.06;92.2627;970.2098;;;;
2020/02/07 04:55:49;;;;;;;29.8;24;;;;;;;-1.28;93.19824;970.3067;;;;
2020/02/07 05:03:22;;;;;;;26.8;23.4;;;;;;;-0.99;91.89746;970.2324;;;;
2020/02/07 05:08:06;;;;;;;30.8;24.8;;;;;;;-1.22;92.65527;970.1511;;;;
2020/02/07 05:11:06;;;;;;;31.3;25.8;;;;;;;-1.32;94.16406;970.1106;;;;
2020/02/07 05:12:57;;;;;;;30.3;25.6;;;;;;;-1.29;94.24902;970.0978;;;;
2020/02/07 05:15:30;;;;;;;30.2;24.5;;;;;;;-1.22;93.33594;970.1418;;;;
2020/02/07 05:17:38;;;;;;;32.5;26.7;;;;;;;-1.24;92.88379;970.1241;;;;
2020/02/07 05:20:02;;;;;;;30.7;26.6;;;;;;;-1.13;92.70605;970.1646;;;;
2020/02/07 05:22:27;;;;;;;31.2;26.8;;;;;;;-1.23;92.7832;970.1903;;;;
2020/02/07 05:24:52;;;;;;;30;25;;;;;;;-1.21;93.5957;970.1457;;;;
2020/02/07 05:27:17;;;;;;;29.6;24.8;;;;;;;-1.25;93.09473;970.171;;;;
2020/02/07 05:29:44;;;;;;;30.2;24.2;;;;;;;-1.23;93.05371;970.1674;;;;
2020/02/07 05:32:09;;;;;;;27.4;23.6;;;;;;;-1.12;92.64063;970.2011;;;;
2020/02/07 05:34:34;;;;;;;27.1;22.8;;;;;;;-1.15;92.56738;970.197;;;;
2020/02/07 05:37:00;;;;;;;25.5;22.8;;;;;;;-1.14;92.90527;970.1417;;;;
2020/02/07 05:39:25;;;;;;;31.5;23.5;;;;;;;-1.2;92.94824;970.1369;;;;
2020/02/07 05:41:50;;;;;;;25.3;22.6;;;;;;;-1.15;92.85938;970.1228;;;;
2020/02/07 05:44:15;;;;;;;28.5;23.6;;;;;;;-1.12;92.47266;970.0652;;;;
2020/02/07 05:46:41;;;;;;;27.5;23.4;;;;;;;-1.12;92.5293;970.1217;;;;
2020/02/07 05:49:06;;;;;;;28.4;23.3;;;;;;;-1.12;92.85547;970.0879;;;;
2020/02/07 05:51:31;;;;;;;27.6;24.1;;;;;;;-1.17;92.92188;970.1138;;;;
2020/02/07 05:53:57;;;;;;;27.9;23.9;;;;;;;-1.06;93.04688;970.1468;;;;
2020/02/07 05:56:22;;;;;;;30.2;25.3;;;;;;;-1.23;93.08789;970.0941;;;;
2020/02/07 05:58:47;;;;;;;28.1;24.1;;;;;;;-1.27;93.09082;970.0039;;;;
2020/02/07 06:01:12;;;;;;;31.3;26.3;;;;;;;-1.29;93.95801;970.0172;;;;
2020/02/07 06:03:37;;;;;;;33.6;28;;;;;;;-1.4;94.26953;969.9716;;;;
2020/02/07 06:06:03;;;;;;;30.2;26.9;;;;;;;-1.27;94.66895;969.9871;;;;
2020/02/07 06:08:28;;;;;;;30.5;26.7;;;;;;;-1.26;94.02148;969.9207;;;;
2020/02/07 06:10:53;;;;;;;30.2;25.7;;;;;;;-1.27;93.75098;969.954;;;;
2020/02/07 06:13:19;;;;;;;29;25.8;;;;;;;-1.22;93.33594;969.9803;;;;
2020/02/07 06:15:44;;;;;;;28.8;25.6;;;;;;;-1.19;93.63281;970.0147;;;;
2020/02/07 06:18:10;;;;;;;27;24.1;;;;;;;-1.16;93.63867;970.0037;;;;
2020/02/07 06:20:35;;;;;;;29.3;24.7;;;;;;;-1.23;93.39941;970.0112;;;;
2020/02/07 06:23:00;;;;;;;28;24.9;;;;;;;-1.23;93.19922;970.0317;;;;
2020/02/07 06:25:51;;;;;;;30.7;25.5;;;;;;;-1.36;94.02246;970.0691;;;;
2020/02/07 06:28:18;;;;;;;30.1;24.6;;;;;;;-1.35;94.0918;970.0851;;;;
2020/02/07 06:30:41;;;;;;;31.7;24.8;;;;;;;-1.45;95.12988;970.1662;;;;
2020/02/07 06:33:06;;;;;;;28.5;24;;;;;;;-1.45;94.60449;970.1834;;;;
2020/02/07 06:35:31;;;;;;;29.8;24.7;;;;;;;-1.5;94.4043;970.2101;;;;
2020/02/07 06:37:56;;;;;;;33.3;26.3;;;;;;;-1.55;95.80371;970.1283;;;;
2020/02/07 06:40:21;;;;;;;32;24;;;;;;;-1.49;94.79785;970.1067;;;;
2020/02/07 06:45:14;;;;;;;33.6;27.1;;;;;;;-1.79;95.69238;970.1804;;;;
2020/02/07 06:47:37;;;;;;;34;26.2;;;;;;;-1.73;95.70508;970.2155;;;;
2020/02/07 06:50:02;;;;;;;33.5;26.5;;;;;;;-1.57;95.43945;970.2061;;;;
2020/02/07 06:52:27;;;;;;;30.1;25.8;;;;;;;-1.61;96.00195;970.1863;;;;
2020/02/07 06:54:52;;;;;;;34.3;27.8;;;;;;;-1.57;96.72363;970.1923;;;;
2020/02/07 06:57:17;;;;;;;33.8;27.7;;;;;;;-1.66;96.48145;970.2202;;;;
2020/02/07 06:59:42;;;;;;;32.3;26.5;;;;;;;-1.65;96.20215;970.2296;;;;
2020/02/07 07:02:07;;;;;;;33.8;27.5;;;;;;;-1.63;96.32031;970.2701;;;;
2020/02/07 07:04:32;;;;;;;35.2;27.7;;;;;;;-1.72;96.26563;970.2609;;;;
2020/02/07 07:06:57;;;;;;;37.1;29.2;;;;;;;-1.65;96.99805;970.1555;;;;
2020/02/07 07:09:22;;;;;;;32.9;27.9;;;;;;;-1.63;96.39844;970.1791;;;;
2020/02/07 07:11:47;;;;;;;32.1;27.9;;;;;;;-1.62;96.49219;970.1775;;;;
2020/02/07 07:14:13;;;;;;;34.6;28.5;;;;;;;-1.53;96.20801;970.1556;;;;
2020/02/07 07:16:38;;;;;;;35.5;30;;;;;;;-1.51;95.97949;970.1855;;;;
2020/02/07 07:19:03;;;;;;;36.3;29.4;;;;;;;-1.56;96.1123;970.186;;;;
2020/02/07 07:21:28;;;;;;;36.7;28.9;;;;;;;-1.56;96.36133;970.2509;;;;
2020/02/07 07:23:53;;;;;;;37;29.2;;;;;;;-1.54;96.54395;970.2479;;;;
2020/02/07 07:26:18;;;;;;;36.2;28.5;;;;;;;-1.4;95.05273;970.2072;;;;
2020/02/07 07:28:43;;;;;;;36.7;30.3;;;;;;;-1.41;95.16113;970.2733;;;;
2020/02/07 07:31:09;;;;;;;40.7;30.7;;;;;;;-1.64;96.00488;970.1965;;;;
2020/02/07 07:33:34;;;;;;;37.8;31.3;;;;;;;-1.6;96.45117;970.2439;;;;
2020/02/07 07:35:59;;;;;;;40.6;31.8;;;;;;;-1.48;96.75781;970.2573;;;;
2020/02/07 07:38:24;;;;;;;40.5;31.2;;;;;;;-1.42;95.50781;970.2202;;;;
2020/02/07 07:40:49;;;;;;;34.8;28.8;;;;;;;-1.32;95.54102;970.1613;;;;
2020/02/07 07:43:14;;;;;;;37.6;29.6;;;;;;;-1.2;95.63477;970.212;;;;
2020/02/07 07:45:39;;;;;;;37;30.1;;;;;;;-1.28;94.92285;970.3563;;;;
2020/02/07 07:48:04;;;;;;;36.3;30;;;;;;;-1.23;95.04688;970.3192;;;;
2020/02/07 07:50:30;;;;;;;34.8;28.8;;;;;;;-1.17;93.49316;970.3331;;;;
2020/02/07 07:52:55;;;;;;;35.4;29.1;;;;;;;-1.25;93.5625;970.3631;;;;
2020/02/07 07:55:20;;;;;;;33.8;29;;;;;;;-1.12;94.18848;970.3469;;;;
2020/02/07 07:57:45;;;;;;;35.3;28.9;;;;;;;-1.1;93.82227;970.4165;;;;
2020/02/07 08:00:10;;;;;;;37.4;30.2;;;;;;;-1.15;93.21973;970.3439;;;;
2020/02/07 08:02:35;;;;;;;35.5;29.9;;;;;;;-1.05;93.3623;970.334;;;;
2020/02/07 08:05:00;;;;;;;37.2;29.7;;;;;;;-0.9;92.57617;970.3689;;;;
2020/02/07 08:07:26;;;;;;;35.8;30.5;;;;;;;-1.05;92.84668;970.3203;;;;
2020/02/07 08:09:51;;;;;;;36.5;29.8;;;;;;;-0.9;91.92676;970.3295;;;;
2020/02/07 08:12:16;;;;;;;33.8;29.6;;;;;;;-0.83;92.48145;970.2664;;;;
2020/02/07 08:14:41;;;;;;;33;27.8;;;;;;;-0.72;91.5752;970.3047;;;;
2020/02/07 08:17:07;;;;;;;32.2;28.2;;;;;;;-0.74;91.14355;970.2324;;;;
2020/02/07 08:19:32;;;;;;;33.9;29.1;;;;;;;-0.68;91.72852;970.2992;;;;
2020/02/07 08:21:57;;;;;;;35.9;30.5;;;;;;;-0.59;91.92773;970.2601;;;;
2020/02/07 08:24:22;;;;;;;35.5;30;;;;;;;-0.7;91.5791;970.2217;;;;
2020/02/07 08:26:48;;;;;;;33;29;;;;;;;-0.53;91.06836;970.2572;;;;
2020/02/07 08:29:13;;;;;;;33.8;28.4;;;;;;;-0.56;90.9043;970.234;;;;
2020/02/07 08:31:38;;;;;;;32.3;27.4;;;;;;;-0.34;90.32227;970.242;;;;
2020/02/07 08:34:03;;;;;;;32.3;27.5;;;;;;;-0.39;89.91016;970.2291;;;;
2020/02/07 08:36:29;;;;;;;32.2;27.5;;;;;;;-0.24;89.53516;970.2352;;;;
2020/02/07 08:38:54;;;;;;;32.5;28.2;;;;;;;-0.25;89.66797;970.1905;;;;
2020/02/07 08:41:19;;;;;;;30.6;25.7;;;;;;;-0.08;88.82813;970.2395;;;;
2020/02/07 08:43:44;;;;;;;27.4;24.2;;;;;;;0;88.13965;970.2141;;;;
2020/02/07 08:46:10;;;;;;;29.3;24.9;;;;;;;0.07;88.28809;970.2137;;;;
2020/02/07 08:48:35;;;;;;;27.7;24.5;;;;;;;0.1;88.0127;970.1573;;;;
2020/02/07 08:51:00;;;;;;;29.6;24.4;;;;;;;0.19;87.54883;970.132;;;;
2020/02/07 08:53:25;;;;;;;29.9;24.5;;;;;;;0.12;87.72656;970.0478;;;;
2020/02/07 08:55:51;;;;;;;28.1;24.4;;;;;;;0.13;88.2334;970.093;;;;
2020/02/07 08:58:16;;;;;;;28.6;24.1;;;;;;;0.23;88.13086;970.1342;;;;
2020/02/07 09:00:41;;;;;;;27.8;23.4;;;;;;;0.48;87.11523;970.1349;;;;
2020/02/07 09:03:06;;;;;;;26.6;23.7;;;;;;;0.4;87.30078;970.1368;;;;
2020/02/07 09:05:31;;;;;;;27.1;24.1;;;;;;;0.47;87.55176;970.1881;;;;
2020/02/07 09:07:56;;;;;;;26.6;23;;;;;;;0.57;86.97656;970.2098;;;;
2020/02/07 09:10:21;;;;;;;29.2;23.9;;;;;;;0.59;86.6875;970.2084;;;;
2020/02/07 09:12:46;;;;;;;28;23.8;;;;;;;0.65;86.69824;970.187;;;;
2020/02/07 09:15:46;;;;;;;29.5;23.7;;;;;;;;;;;;;
2020/02/07 09:17:48;;;;;;;28.6;24.2;;;;;;;;;;;;;
2020/02/07 09:22:36;;;;;;;26;23.2;;;;;;;;;;;;;
2020/02/07 09:24:52;;;;;;;32.8;27.2;;;;;;;;;;;;;
2020/02/07 09:27:17;;;;;;;28.3;23.5;;;;;;;;;;;;;
2020/02/07 09:29:42;;;;;;;25.1;22.4;;;;;;;;;;;;;
2020/02/07 09:32:07;;;;;;;27.6;22.8;;;;;;;;;;;;;
2020/02/07 09:34:32;;;;;;;29.8;23.8;;;;;;;;;;;;;
2020/02/07 09:36:57;;;;;;;28;24.7;;;;;;;;;;;;;
2020/02/07 09:39:22;;;;;;;29.8;22.3;;;;;;;;;;;;;
2020/02/07 09:41:47;;;;;;;25.2;21.5;;;;;;;;;;;;;
2020/02/07 09:44:12;;;;;;;24.2;21.4;;;;;;;;;;;;;
2020/02/07 09:46:37;;;;;;;26.1;23.3;;;;;;;;;;;;;
2020/02/07 09:49:02;;;;;;;26.6;22.2;;;;;;;;;;;;;
2020/02/07 09:51:28;;;;;;;28.1;22.6;;;;;;;;;;;;;
2020/02/07 09:53:53;;;;;;;27.9;22.3;;;;;;;;;;;;;
2020/02/07 09:56:18;;;;;;;24.6;20.8;;;;;;;;;;;;;
2020/02/07 09:58:43;;;;;;;23.4;20.5;;;;;;;;;;;;;
2020/02/07 10:01:08;;;;;;;24.2;20.7;;;;;;;;;;;;;
2020/02/07 10:03:39;;;;;;;24.9;21.4;;;;;;;;;;;;;
2020/02/07 10:05:59;;;;;;;23.9;21;;;;;;;;;;;;;
2020/02/07 10:08:24;;;;;;;27.1;20.6;;;;;;;;;;;;;
2020/02/07 10:10:49;;;;;;;23.3;20.8;;;;;;;;;;;;;
2020/02/07 10:13:14;;;;;;;22.9;20.5;;;;;;;;;;;;;
2020/02/07 10:15:40;;;;;;;25.4;22.2;;;;;;;;;;;;;
2020/02/07 10:18:05;;;;;;;23.3;19.3;;;;;;;;;;;;;
2020/02/07 10:20:30;;;;;;;23.4;20.2;;;;;;;;;;;;;
2020/02/07 10:22:55;;;;;;;25.4;20.7;;;;;;;;;;;;;
2020/02/07 10:25:20;;;;;;;22;19.5;;;;;;;;;;;;;
2020/02/07 10:27:45;;;;;;;23.9;19.8;;;;;;;;;;;;;
2020/02/07 10:30:10;;;;;;;23.3;20.2;;;;;;;;;;;;;
2020/02/07 10:32:35;;;;;;;22.8;19.8;;;;;;;;;;;;;
2020/02/07 10:35:00;;;;;;;21.5;18.8;;;;;;;;;;;;;
2020/02/07 10:37:25;;;;;;;21.7;18.7;;;;;;;;;;;;;
2020/02/07 10:39:50;;;;;;;22.2;19.3;;;;;;;;;;;;;
2020/02/07 10:42:15;;;;;;;23.7;19.1;;;;;;;;;;;;;
2020/02/07 10:44:40;;;;;;;24.5;19.4;;;;;;;;;;;;;
2020/02/07 10:47:05;;;;;;;21;18.4;;;;;;;;;;;;;
2020/02/07 10:49:31;;;;;;;24.4;19.7;;;;;;;;;;;;;
2020/02/07 10:51:56;;;;;;;23.4;19.1;;;;;;;;;;;;;
2020/02/07 10:54:21;;;;;;;21.2;18.8;;;;;;;;;;;;;
2020/02/07 10:56:46;;;;;;;21.1;18;;;;;;;;;;;;;
2020/02/07 10:59:11;;;;;;;21;18.4;;;;;;;;;;;;;
2020/02/07 11:01:37;;;;;;;22.1;19.5;;;;;;;;;;;;;
2020/02/07 11:04:02;;;;;;;21.7;18.8;;;;;;;;;;;;;
2020/02/07 11:06:27;;;;;;;22;19;;;;;;;;;;;;;
2020/02/07 11:08:52;;;;;;;24.1;18.6;;;;;;;;;;;;;
2020/02/07 11:11:17;;;;;;;22.9;19.8;;;;;;;;;;;;;
2020/02/07 11:13:42;;;;;;;22.3;18.2;;;;;;;;;;;;;
2020/02/07 11:16:07;;;;;;;21.9;19.5;;;;;;;;;;;;;
2020/02/07 11:18:32;;;;;;;21.5;19.2;;;;;;;;;;;;;
2020/02/07 11:20:57;;;;;;;21.1;18.8;;;;;;;;;;;;;
2020/02/07 11:23:22;;;;;;;23.6;20.7;;;;;;;;;;;;;
2020/02/07 11:25:47;;;;;;;21.7;19.1;;;;;;;;;;;;;
2020/02/07 11:28:18;;;;;;;22.3;19.5;;;;;;;;;;;;;
2020/02/07 11:33:10;;;;;;;23.4;19.4;;;;;;;;;;;;;
2020/02/07 11:35:38;;;;;;;21.2;18.9;;;;;;;;;;;;;
2020/02/07 11:42:57;;;;;;;23.8;20;;;;;;;;;;;;;
2020/02/07 11:45:35;;;;;;;22.8;18.9;;;;;;;;;;;;;
2020/02/07 11:50:19;;;;;;;21.5;19.1;;;;;;;;;;;;;
2020/02/07 11:52:38;;;;;;;21.6;19.3;;;;;;;;;;;;;
2020/02/07 11:57:30;;;;;;;21.3;18.7;;;;;;;;;;;;;
2020/02/07 12:06:11;;;;;;;24.2;20.2;;;;;;;;;;;;;
2020/02/07 12:07:12;;;;;;;21.7;18.7;;;;;;;;;;;;;
2020/02/07 12:11:13;;;;;;;21.8;18.7;;;;;;;;;;;;;
2020/02/07 12:12:06;;;;;;;20.3;17.7;;;;;;;;;;;;;
2020/02/07 12:14:38;;;;;;;20.8;18;;;;;;;;;;;;;
2020/02/07 12:21:35;;;;;;;22.4;18.1;;;;;;;;;;;;;
2020/02/07 12:26:30;;;;;;;20.4;17.4;;;;;;;;;;;;;
2020/02/07 12:28:59;;;;;;;21;17.6;;;;;;;;;;;;;
2020/02/07 12:36:24;;;;;;;19.4;17.2;;;;;;;;;;;;;
2020/02/07 12:39:08;;;;;;;18.7;16.5;;;;;;;;;;;;;
2020/02/07 12:41:02;;;;;;;21.2;16.8;;;;;;;;;;;;;
2020/02/07 12:45:54;;;;;;;20;17;;;;;;;;;;;;;
2020/02/07 12:48:11;;;;;;;20;16.9;;;;;;;;;;;;;
2020/02/07 12:51:14;;;;;;;19.1;15.5;;;;;;;;;;;;;
2020/02/07 12:53:01;;;;;;;17.9;15.4;;;;;;;;;;;;;
2020/02/07 12:55:44;;;;;;;19.1;16.1;;;;;;;;;;;;;
2020/02/07 13:02:38;;;;;;;18;16;;;;;;;3.79;72.66211;967.9244;;;;
2020/02/07 13:05:04;;;;;;;19.9;17;;;;;;;3.81;72.93848;967.8531;;;;
2020/02/07 13:07:31;;;;;;;19.1;16.6;;;;;;;3.84;73.14648;967.821;;;;
2020/02/07 13:09:58;;;;;;;20.6;17.4;;;;;;;3.81;72.7666;967.8197;;;;
2020/02/07 13:12:24;;;;;;;19.3;16.9;;;;;;;3.78;72.24121;967.8084;;;;
2020/02/07 13:14:42;;;;;;;19.3;15.6;;;;;;;3.91;69.92773;967.8116;;;;
2020/02/07 13:17:15;;;;;;;19.9;16.6;;;;;;;3.84;71.71875;967.8194;;;;
2020/02/07 13:22:30;;;;;;;19.8;16.3;;;;;;;4.03;71.55859;967.7519;;;;
2020/02/07 13:25:03;;;;;;;21.3;17.2;;;;;;;3.87;71.28223;967.7209;;;;
2020/02/07 13:27:01;;;;;;;22.3;17.2;;;;;;;3.84;71.44727;967.6909;;;;
2020/02/07 13:29:28;;;;;;;19.9;16.7;;;;;;;3.86;70.38672;967.6747;;;;
2020/02/07 13:31:49;;;;;;;19.3;16.2;;;;;;;3.95;71.13672;967.6603;;;;
2020/02/07 13:39:26;;;;;;;19.1;16.2;;;;;;;4.07;71.25781;967.5635;;;;
2020/02/07 13:42:17;;;;;;;21.6;17;;;;;;;4.04;71.0498;967.5714;;;;
2020/02/07 13:44:09;;;;;;;19.6;16.5;;;;;;;3.93;70.69043;967.5566;;;;
2020/02/07 13:46:41;;;;;;;19.6;16.8;;;;;;;3.88;71.26172;967.587;;;;
2020/02/07 13:49:03;;;;;;;21.5;17.3;;;;;;;3.97;71.87598;967.5878;;;;
2020/02/07 13:51:25;;;;;;;20.1;17;;;;;;;4.03;71.78516;967.6099;;;;
2020/02/07 13:58:39;;;;;;;21;17.7;;;;;;;4.07;72.4043;967.668;;;;
2020/02/07 14:01:05;;;;;;;21.8;18.9;;;;;;;3.91;72.81934;967.6403;;;;
2020/02/07 14:03:25;;;;;;;20.1;17.7;;;;;;;4.05;72.57031;967.5676;;;;
2020/02/07 14:08:46;;;;;;;23.8;17.8;;;;;;;4.04;72.50098;967.5505;;;;
2020/02/07 14:13:11;;;;;;;19.8;17.2;;;;;;;4.06;72.38086;967.5133;;;;
2020/02/07 14:18:28;;;;;;;20;17.7;;;;;;;4.09;72.54199;967.4825;;;;
2020/02/07 14:20:23;;;;;;;21.6;18.2;;;;;;;4.09;72.75879;967.4796;;;;
2020/02/07 14:22:53;;;;;;;20.6;18.5;;;;;;;3.91;74.08691;967.4747;;;;
2020/02/07 14:27:38;;;;;;;21.4;19;;;;;;;4.07;74.00293;967.5099;;;;
2020/02/07 14:30:09;;;;;;;21.7;18.2;;;;;;;4.11;73.3877;967.5317;;;;
2020/02/07 14:35:11;;;;;;;22;18.4;;;;;;;4.18;73.51172;967.6239;;;;
2020/02/07 14:37:54;;;;;;;21.8;18.7;;;;;;;4.11;74.13574;967.6027;;;;
2020/02/07 14:42:10;;;;;;;19.9;17.7;;;;;;;4.19;73.67285;967.5871;;;;
2020/02/07 14:46:54;;;;;;;19.8;17.8;;;;;;;4.26;72.65039;967.6044;;;;
2020/02/07 14:51:47;;;;;;;20.9;18.6;;;;;;;4.13;74.60156;967.5789;;;;
2020/02/07 14:54:13;;;;;;;21.6;18.2;;;;;;;4.2;73.54883;967.5609;;;;
2020/02/07 15:03:59;;;;;;;21.8;18.6;;;;;;;4.05;74.31543;967.5025;;;;
2020/02/07 15:06:49;;;;;;;20.8;18.2;;;;;;;4.06;74.27246;967.476;;;;
2020/02/07 15:08:59;;;;;;;20.6;18;;;;;;;4.22;73.67676;967.447;;;;
2020/02/07 15:12:07;;;;;;;20.9;18.7;;;;;;;4.15;73.68652;967.4238;;;;
2020/02/07 15:20:49;;;;;;;20.2;17.9;;;;;;;4.14;73.52832;967.4364;;;;
2020/02/07 15:23:13;;;;;;;22.5;19.4;;;;;;;3.92;74.29199;967.4478;;;;
2020/02/07 15:25:46;;;;;;;22;19.6;;;;;;;3.83;75.09375;967.4584;;;;
2020/02/07 15:28:04;;;;;;;22.2;19;;;;;;;3.95;74.75195;967.4717;;;;
2020/02/07 15:30:47;;;;;;;22.4;20;;;;;;;3.75;75.86133;967.4601;;;;
2020/02/07 15:32:50;;;;;;;22;19;;;;;;;3.85;75.69922;967.5039;;;;
2020/02/07 15:36:16;;;;;;;22.3;19.7;;;;;;;3.83;75.12793;967.4842;;;;
2020/02/07 15:42:30;;;;;;;21.3;18.9;;;;;;;3.65;75.51563;967.4894;;;;
2020/02/07 15:45:40;;;;;;;21.3;18.5;;;;;;;3.6;76.03809;967.4747;;;;
2020/02/07 15:48:06;;;;;;;24.1;19.8;;;;;;;3.54;76.06055;967.4357;;;;
2020/02/07 15:50:29;;;;;;;20.8;18.2;;;;;;;3.47;76.28613;967.4007;;;;
2020/02/07 15:52:56;;;;;;;20.6;18.1;;;;;;;3.44;76.33789;967.432;;;;
2020/02/07 15:55:53;;;;;;;21.6;19.1;;;;;;;3.56;75.83789;967.3287;;;;
2020/02/07 15:58:26;;;;;;;21.1;18.5;;;;;;;3.58;76.1709;967.3873;;;;
2020/02/07 16:02:36;;;;;;;21;18.1;;;;;;;3.46;76.83887;967.3367;;;;
2020/02/07 16:07:42;;;;;;;22.6;18.9;;;;;;;3.48;77.09082;967.3564;;;;
2020/02/07 16:11:02;;;;;;;20.5;18.3;;;;;;;3.38;77.0752;967.3478;;;;
2020/02/07 16:12:15;;;;;;;20.9;18.8;;;;;;;3.49;77.01465;967.3281;;;;
2020/02/07 16:14:56;;;;;;;20.9;18.6;;;;;;;3.27;77.72266;967.2856;;;;
2020/02/07 16:21:55;;;;;;;21.6;19.1;;;;;;;3.25;78.55371;967.2573;;;;
2020/02/07 16:24:27;;;;;;;24.1;20.1;;;;;;;3.18;78.75879;967.3156;;;;
2020/02/07 16:26:54;;;;;;;22.1;19.7;;;;;;;3.19;78.54395;967.311;;;;
2020/02/07 16:29:33;;;;;;;22.5;19.1;;;;;;;3.18;78.9043;967.2767;;;;
2020/02/07 16:32:08;;;;;;;25.2;19.7;;;;;;;3.09;79.35254;967.2684;;;;
2020/02/07 16:38:56;;;;;;;22.6;20;;;;;;;2.95;79.72168;967.2662;;;;
2020/02/07 16:44:08;;;;;;;23.4;20.8;;;;;;;2.81;80.62207;967.3325;;;;
2020/02/07 16:46:29;;;;;;;25.2;21;;;;;;;2.69;81.1084;967.3014;;;;
2020/02/07 16:48:52;;;;;;;23.3;20.4;;;;;;;2.71;80.88574;967.2983;;;;
2020/02/07 16:51:28;;;;;;;23.3;20.5;;;;;;;2.72;80.71777;967.2922;;;;
2020/02/07 16:53:36;;;;;;;23.8;21.3;;;;;;;2.71;80.55762;967.307;;;;
2020/02/07 16:56:06;;;;;;;23.6;21;;;;;;;2.7;81.14355;967.3315;;;;
2020/02/07 17:03:33;;;;;;;24.5;21.9;;;;;;;2.66;81.19336;967.4174;;;;
2020/02/07 17:08:11;;;;;;;23;20.5;;;;;;;2.63;81.14258;967.4676;;;;
2020/02/07 17:10:50;;;;;;;24.8;21.7;;;;;;;2.53;81.59668;967.4286;;;;